sensor_id;sensor_type;location;lat;lon;timestamp;P1;durP1;ratioP1;P2;durP2;ratioP2
62153;SDS011;48140;45.486;9.226;2023-02-27T00:00:38;6.53;;;2.88;;
62153;SDS011;48140;45.486;9.226;2023-02-27T00:03:04;4.35;;;2.40;;
62153;SDS011;48140;45.486;9.226;2023-02-27T00:05:29;3.47;;;1.75;;
62153;SDS011;48140;45.486;9.226;2023-02-27T00:07:55;3.38;;;2.03;;
62153;SDS011;48140;45.486;9.226;2023-02-27T00:10:21;2.67;;;2.00;;
62153;SDS011;48140;45.486;9.226;2023-02-27T00:12:46;2.80;;;1.70;;
62153;SDS011;48140;45.486;9.226;2023-02-27T00:15:13;2.53;;;1.70;;
62153;SDS011;48140;45.486;9.226;2023-02-27T00:17:41;3.35;;;1.83;;
62153;SDS011;48140;45.486;9.226;2023-02-27T00:20:08;2.50;;;1.58;;
62153;SDS011;48140;45.486;9.226;2023-02-27T00:22:35;3.75;;;1.83;;
62153;SDS011;48140;45.486;9.226;2023-02-27T00:25:02;2.08;;;1.45;;
62153;SDS011;48140;45.486;9.226;2023-02-27T00:27:28;2.40;;;2.00;;
62153;SDS011;48140;45.486;9.226;2023-02-27T00:29:53;2.08;;;1.42;;
62153;SDS011;48140;45.486;9.226;2023-02-27T00:32:19;2.45;;;1.60;;
62153;SDS011;48140;45.486;9.226;2023-02-27T00:34:45;1.90;;;1.27;;
62153;SDS011;48140;45.486;9.226;2023-02-27T00:37:11;2.47;;;1.70;;
62153;SDS011;48140;45.486;9.226;2023-02-27T00:39:36;4.25;;;1.50;;
62153;SDS011;48140;45.486;9.226;2023-02-27T00:42:02;2.95;;;1.55;;
62153;SDS011;48140;45.486;9.226;2023-02-27T00:44:27;1.85;;;1.40;;
62153;SDS011;48140;45.486;9.226;2023-02-27T00:46:53;2.38;;;1.50;;
62153;SDS011;48140;45.486;9.226;2023-02-27T00:49:18;2.22;;;1.40;;
62153;SDS011;48140;45.486;9.226;2023-02-27T00:51:44;1.83;;;1.30;;
62153;SDS011;48140;45.486;9.226;2023-02-27T00:54:10;2.15;;;1.50;;
62153;SDS011;48140;45.486;9.226;2023-02-27T00:56:36;1.80;;;1.38;;
62153;SDS011;48140;45.486;9.226;2023-02-27T00:59:02;2.80;;;1.50;;
62153;SDS011;48140;45.486;9.226;2023-02-27T01:01:28;3.33;;;1.73;;
62153;SDS011;48140;45.486;9.226;2023-02-27T01:03:54;2.30;;;1.27;;
62153;SDS011;48140;45.486;9.226;2023-02-27T01:06:19;1.65;;;1.30;;
62153;SDS011;48140;45.486;9.226;2023-02-27T01:08:45;1.98;;;1.30;;
62153;SDS011;48140;45.486;9.226;2023-02-27T01:11:10;1.15;;;1.05;;
62153;SDS011;48140;45.486;9.226;2023-02-27T01:13:36;1.52;;;1.02;;
62153;SDS011;48140;45.486;9.226;2023-02-27T01:16:02;1.45;;;1.30;;
62153;SDS011;48140;45.486;9.226;2023-02-27T01:18:28;1.48;;;1.10;;
62153;SDS011;48140;45.486;9.226;2023-02-27T01:20:53;1.42;;;1.23;;
62153;SDS011;48140;45.486;9.226;2023-02-27T01:23:19;2.22;;;1.60;;
62153;SDS011;48140;45.486;9.226;2023-02-27T01:25:46;1.85;;;1.40;;
62153;SDS011;48140;45.486;9.226;2023-02-27T01:28:12;1.80;;;1.10;;
62153;SDS011;48140;45.486;9.226;2023-02-27T01:30:38;3.20;;;1.35;;
62153;SDS011;48140;45.486;9.226;2023-02-27T01:33:05;1.48;;;1.15;;
62153;SDS011;48140;45.486;9.226;2023-02-27T01:35:31;1.20;;;1.10;;
62153;SDS011;48140;45.486;9.226;2023-02-27T01:37:57;2.95;;;1.52;;
62153;SDS011;48140;45.486;9.226;2023-02-27T01:40:22;2.08;;;1.48;;
62153;SDS011;48140;45.486;9.226;2023-02-27T01:42:48;1.27;;;1.15;;
62153;SDS011;48140;45.486;9.226;2023-02-27T01:47:53;2.22;;;1.20;;
62153;SDS011;48140;45.486;9.226;2023-02-27T01:50:23;2.70;;;1.50;;
62153;SDS011;48140;45.486;9.226;2023-02-27T01:52:52;1.90;;;1.38;;
62153;SDS011;48140;45.486;9.226;2023-02-27T01:55:20;2.75;;;1.30;;
62153;SDS011;48140;45.486;9.226;2023-02-27T01:57:47;4.20;;;1.85;;
62153;SDS011;48140;45.486;9.226;2023-02-27T02:00:14;1.50;;;1.10;;
62153;SDS011;48140;45.486;9.226;2023-02-27T02:02:41;2.40;;;1.48;;
62153;SDS011;48140;45.486;9.226;2023-02-27T02:05:30;2.22;;;1.50;;
62153;SDS011;48140;45.486;9.226;2023-02-27T02:07:55;1.95;;;1.30;;
62153;SDS011;48140;45.486;9.226;2023-02-27T02:10:22;2.80;;;1.50;;
62153;SDS011;48140;45.486;9.226;2023-02-27T02:12:49;1.75;;;1.00;;
62153;SDS011;48140;45.486;9.226;2023-02-27T02:15:14;1.42;;;1.30;;
62153;SDS011;48140;45.486;9.226;2023-02-27T02:18:02;2.42;;;1.42;;
62153;SDS011;48140;45.486;9.226;2023-02-27T02:37:32;1.42;;;1.08;;
62153;SDS011;48140;45.486;9.226;2023-02-27T02:43:27;3.15;;;1.20;;
62153;SDS011;48140;45.486;9.226;2023-02-27T02:46:14;2.13;;;1.45;;
62153;SDS011;48140;45.486;9.226;2023-02-27T02:48:46;6.78;;;2.20;;
62153;SDS011;48140;45.486;9.226;2023-02-27T02:54:05;1.90;;;1.35;;
62153;SDS011;48140;45.486;9.226;2023-02-27T02:57:08;2.42;;;1.88;;
62153;SDS011;48140;45.486;9.226;2023-02-27T02:59:46;2.58;;;1.48;;
62153;SDS011;48140;45.486;9.226;2023-02-27T03:02:17;3.05;;;1.23;;
62153;SDS011;48140;45.486;9.226;2023-02-27T03:05:07;1.58;;;1.27;;
62153;SDS011;48140;45.486;9.226;2023-02-27T03:07:48;1.88;;;1.33;;
62153;SDS011;48140;45.486;9.226;2023-02-27T03:10:24;2.08;;;1.30;;
62153;SDS011;48140;45.486;9.226;2023-02-27T03:13:10;1.58;;;1.30;;
62153;SDS011;48140;45.486;9.226;2023-02-27T03:15:55;1.95;;;1.40;;
62153;SDS011;48140;45.486;9.226;2023-02-27T03:18:33;1.58;;;1.40;;
62153;SDS011;48140;45.486;9.226;2023-02-27T03:21:06;2.60;;;1.80;;
62153;SDS011;48140;45.486;9.226;2023-02-27T03:23:39;3.63;;;2.05;;
62153;SDS011;48140;45.486;9.226;2023-02-27T03:26:12;1.48;;;1.27;;
62153;SDS011;48140;45.486;9.226;2023-02-27T03:28:44;1.77;;;1.52;;
62153;SDS011;48140;45.486;9.226;2023-02-27T03:31:39;2.88;;;1.70;;
62153;SDS011;48140;45.486;9.226;2023-02-27T03:34:14;2.40;;;1.63;;
62153;SDS011;48140;45.486;9.226;2023-02-27T03:36:53;1.55;;;1.42;;
62153;SDS011;48140;45.486;9.226;2023-02-27T03:39:45;3.10;;;1.63;;
62153;SDS011;48140;45.486;9.226;2023-02-27T03:47:46;2.20;;;1.70;;
62153;SDS011;48140;45.486;9.226;2023-02-27T03:50:12;1.80;;;1.60;;
62153;SDS011;48140;45.486;9.226;2023-02-27T03:52:37;2.47;;;1.75;;
62153;SDS011;48140;45.486;9.226;2023-02-27T03:57:40;1.92;;;1.55;;
62153;SDS011;48140;45.486;9.226;2023-02-27T04:00:09;1.88;;;1.45;;
62153;SDS011;48140;45.486;9.226;2023-02-27T04:02:37;1.90;;;1.60;;
62153;SDS011;48140;45.486;9.226;2023-02-27T04:05:05;2.10;;;1.48;;
62153;SDS011;48140;45.486;9.226;2023-02-27T04:15:46;2.10;;;1.50;;
62153;SDS011;48140;45.486;9.226;2023-02-27T04:18:18;1.17;;;0.93;;
62153;SDS011;48140;45.486;9.226;2023-02-27T04:23:22;1.98;;;1.17;;
62153;SDS011;48140;45.486;9.226;2023-02-27T04:26:39;1.95;;;1.40;;
62153;SDS011;48140;45.486;9.226;2023-02-27T04:37:16;1.92;;;1.25;;
62153;SDS011;48140;45.486;9.226;2023-02-27T04:40:07;2.65;;;1.35;;
62153;SDS011;48140;45.486;9.226;2023-02-27T04:42:40;1.73;;;1.20;;
62153;SDS011;48140;45.486;9.226;2023-02-27T04:45:11;1.23;;;1.05;;
62153;SDS011;48140;45.486;9.226;2023-02-27T04:48:02;2.30;;;1.35;;
62153;SDS011;48140;45.486;9.226;2023-02-27T04:50:53;1.27;;;1.17;;
62153;SDS011;48140;45.486;9.226;2023-02-27T04:53:40;4.70;;;1.33;;
62153;SDS011;48140;45.486;9.226;2023-02-27T04:56:45;1.23;;;1.10;;
62153;SDS011;48140;45.486;9.226;2023-02-27T04:59:16;1.58;;;1.13;;
62153;SDS011;48140;45.486;9.226;2023-02-27T05:04:19;3.88;;;1.77;;
62153;SDS011;48140;45.486;9.226;2023-02-27T05:06:48;3.97;;;1.48;;
62153;SDS011;48140;45.486;9.226;2023-02-27T05:09:19;1.50;;;1.13;;
62153;SDS011;48140;45.486;9.226;2023-02-27T05:12:05;1.88;;;1.30;;
62153;SDS011;48140;45.486;9.226;2023-02-27T05:17:24;1.70;;;1.23;;
62153;SDS011;48140;45.486;9.226;2023-02-27T05:19:57;1.92;;;1.17;;
62153;SDS011;48140;45.486;9.226;2023-02-27T05:22:31;0.88;;;0.88;;
62153;SDS011;48140;45.486;9.226;2023-02-27T05:25:25;2.30;;;1.27;;
62153;SDS011;48140;45.486;9.226;2023-02-27T05:33:46;1.60;;;1.20;;
62153;SDS011;48140;45.486;9.226;2023-02-27T05:36:39;1.33;;;1.20;;
62153;SDS011;48140;45.486;9.226;2023-02-27T05:39:10;1.60;;;0.90;;
62153;SDS011;48140;45.486;9.226;2023-02-27T05:44:14;2.47;;;1.42;;
62153;SDS011;48140;45.486;9.226;2023-02-27T05:46:46;1.63;;;1.20;;
62153;SDS011;48140;45.486;9.226;2023-02-27T05:49:20;1.02;;;0.90;;
62153;SDS011;48140;45.486;9.226;2023-02-27T05:51:49;1.83;;;1.13;;
62153;SDS011;48140;45.486;9.226;2023-02-27T05:54:27;1.85;;;1.10;;
62153;SDS011;48140;45.486;9.226;2023-02-27T05:56:57;1.50;;;0.93;;
62153;SDS011;48140;45.486;9.226;2023-02-27T05:59:39;1.60;;;1.30;;
62153;SDS011;48140;45.486;9.226;2023-02-27T06:02:28;1.67;;;1.17;;
62153;SDS011;48140;45.486;9.226;2023-02-27T06:04:54;2.55;;;1.40;;
62153;SDS011;48140;45.486;9.226;2023-02-27T06:07:19;2.35;;;1.52;;
62153;SDS011;48140;45.486;9.226;2023-02-27T06:09:46;3.53;;;1.77;;
62153;SDS011;48140;45.486;9.226;2023-02-27T06:12:13;2.33;;;1.42;;
62153;SDS011;48140;45.486;9.226;2023-02-27T06:14:38;2.70;;;1.75;;
62153;SDS011;48140;45.486;9.226;2023-02-27T06:17:04;2.15;;;1.73;;
62153;SDS011;48140;45.486;9.226;2023-02-27T06:19:29;1.80;;;1.33;;
62153;SDS011;48140;45.486;9.226;2023-02-27T06:21:56;3.17;;;1.67;;
62153;SDS011;48140;45.486;9.226;2023-02-27T06:24:22;3.33;;;1.90;;
62153;SDS011;48140;45.486;9.226;2023-02-27T06:26:47;2.30;;;1.60;;
62153;SDS011;48140;45.486;9.226;2023-02-27T06:29:13;4.70;;;1.58;;
62153;SDS011;48140;45.486;9.226;2023-02-27T06:31:38;3.78;;;1.80;;
62153;SDS011;48140;45.486;9.226;2023-02-27T06:34:04;2.28;;;1.70;;
62153;SDS011;48140;45.486;9.226;2023-02-27T06:36:30;2.05;;;1.50;;
62153;SDS011;48140;45.486;9.226;2023-02-27T06:38:55;2.55;;;1.77;;
62153;SDS011;48140;45.486;9.226;2023-02-27T06:41:22;1.95;;;1.50;;
62153;SDS011;48140;45.486;9.226;2023-02-27T06:43:47;2.65;;;1.90;;
62153;SDS011;48140;45.486;9.226;2023-02-27T06:46:13;2.95;;;2.10;;
62153;SDS011;48140;45.486;9.226;2023-02-27T06:48:39;1.92;;;1.55;;
62153;SDS011;48140;45.486;9.226;2023-02-27T06:51:04;2.40;;;1.90;;
62153;SDS011;48140;45.486;9.226;2023-02-27T06:53:34;3.25;;;2.50;;
62153;SDS011;48140;45.486;9.226;2023-02-27T06:55:59;2.20;;;1.60;;
62153;SDS011;48140;45.486;9.226;2023-02-27T06:58:25;2.97;;;2.00;;
62153;SDS011;48140;45.486;9.226;2023-02-27T07:00:50;2.42;;;1.80;;
62153;SDS011;48140;45.486;9.226;2023-02-27T07:03:16;3.60;;;2.10;;
62153;SDS011;48140;45.486;9.226;2023-02-27T07:05:41;6.03;;;2.38;;
62153;SDS011;48140;45.486;9.226;2023-02-27T07:08:08;1.98;;;1.48;;
62153;SDS011;48140;45.486;9.226;2023-02-27T07:10:34;3.78;;;2.53;;
62153;SDS011;48140;45.486;9.226;2023-02-27T07:13:00;2.25;;;1.75;;
62153;SDS011;48140;45.486;9.226;2023-02-27T07:15:27;4.50;;;1.70;;
62153;SDS011;48140;45.486;9.226;2023-02-27T07:17:52;3.60;;;2.28;;
62153;SDS011;48140;45.486;9.226;2023-02-27T07:20:18;2.67;;;1.88;;
62153;SDS011;48140;45.486;9.226;2023-02-27T07:22:44;3.80;;;2.17;;
62153;SDS011;48140;45.486;9.226;2023-02-27T07:25:09;2.22;;;1.63;;
62153;SDS011;48140;45.486;9.226;2023-02-27T07:27:35;2.40;;;1.60;;
62153;SDS011;48140;45.486;9.226;2023-02-27T07:30:01;2.65;;;1.80;;
62153;SDS011;48140;45.486;9.226;2023-02-27T07:32:27;3.13;;;1.90;;
62153;SDS011;48140;45.486;9.226;2023-02-27T07:34:53;2.03;;;1.30;;
62153;SDS011;48140;45.486;9.226;2023-02-27T07:37:18;2.17;;;1.30;;
62153;SDS011;48140;45.486;9.226;2023-02-27T07:39:44;1.98;;;1.33;;
62153;SDS011;48140;45.486;9.226;2023-02-27T07:42:09;1.90;;;1.27;;
62153;SDS011;48140;45.486;9.226;2023-02-27T07:44:35;1.63;;;1.23;;
62153;SDS011;48140;45.486;9.226;2023-02-27T07:47:04;1.63;;;1.25;;
62153;SDS011;48140;45.486;9.226;2023-02-27T07:49:29;1.30;;;1.20;;
62153;SDS011;48140;45.486;9.226;2023-02-27T07:51:55;4.72;;;1.35;;
62153;SDS011;48140;45.486;9.226;2023-02-27T07:54:21;2.88;;;1.60;;
62153;SDS011;48140;45.486;9.226;2023-02-27T07:56:46;2.38;;;1.25;;
62153;SDS011;48140;45.486;9.226;2023-02-27T07:59:12;1.95;;;1.40;;
62153;SDS011;48140;45.486;9.226;2023-02-27T08:01:37;6.57;;;1.48;;
62153;SDS011;48140;45.486;9.226;2023-02-27T08:04:03;3.25;;;2.00;;
62153;SDS011;48140;45.486;9.226;2023-02-27T08:06:29;1.58;;;1.23;;
62153;SDS011;48140;45.486;9.226;2023-02-27T08:08:54;4.60;;;1.85;;
62153;SDS011;48140;45.486;9.226;2023-02-27T08:11:20;1.25;;;1.13;;
62153;SDS011;48140;45.486;9.226;2023-02-27T08:13:45;2.75;;;1.90;;
62153;SDS011;48140;45.486;9.226;2023-02-27T08:16:11;6.93;;;2.10;;
62153;SDS011;48140;45.486;9.226;2023-02-27T08:18:37;1.90;;;1.30;;
62153;SDS011;48140;45.486;9.226;2023-02-27T08:21:03;1.33;;;1.23;;
62153;SDS011;48140;45.486;9.226;2023-02-27T08:23:29;4.35;;;1.92;;
62153;SDS011;48140;45.486;9.226;2023-02-27T08:25:56;2.60;;;1.80;;
62153;SDS011;48140;45.486;9.226;2023-02-27T08:28:22;2.53;;;1.83;;
62153;SDS011;48140;45.486;9.226;2023-02-27T08:30:49;3.53;;;2.30;;
62153;SDS011;48140;45.486;9.226;2023-02-27T08:33:14;2.13;;;1.40;;
62153;SDS011;48140;45.486;9.226;2023-02-27T08:35:40;5.68;;;2.55;;
62153;SDS011;48140;45.486;9.226;2023-02-27T08:38:06;3.42;;;2.13;;
62153;SDS011;48140;45.486;9.226;2023-02-27T08:40:32;2.58;;;2.00;;
62153;SDS011;48140;45.486;9.226;2023-02-27T08:42:58;2.90;;;2.10;;
62153;SDS011;48140;45.486;9.226;2023-02-27T08:45:23;4.07;;;2.60;;
62153;SDS011;48140;45.486;9.226;2023-02-27T08:47:49;6.10;;;2.70;;
62153;SDS011;48140;45.486;9.226;2023-02-27T08:50:15;3.75;;;2.47;;
62153;SDS011;48140;45.486;9.226;2023-02-27T08:52:41;11.63;;;2.20;;
62153;SDS011;48140;45.486;9.226;2023-02-27T08:55:06;3.05;;;2.60;;
62153;SDS011;48140;45.486;9.226;2023-02-27T08:57:33;2.80;;;2.00;;
62153;SDS011;48140;45.486;9.226;2023-02-27T08:59:59;6.82;;;2.67;;
62153;SDS011;48140;45.486;9.226;2023-02-27T09:02:24;5.22;;;2.53;;
62153;SDS011;48140;45.486;9.226;2023-02-27T09:04:53;4.07;;;2.72;;
62153;SDS011;48140;45.486;9.226;2023-02-27T09:07:19;6.25;;;2.50;;
62153;SDS011;48140;45.486;9.226;2023-02-27T09:09:45;2.65;;;1.95;;
62153;SDS011;48140;45.486;9.226;2023-02-27T09:12:11;3.88;;;2.33;;
62153;SDS011;48140;45.486;9.226;2023-02-27T09:14:36;3.55;;;2.17;;
62153;SDS011;48140;45.486;9.226;2023-02-27T09:17:05;3.88;;;2.38;;
62153;SDS011;48140;45.486;9.226;2023-02-27T09:19:31;4.80;;;2.10;;
62153;SDS011;48140;45.486;9.226;2023-02-27T09:21:57;3.38;;;2.10;;
62153;SDS011;48140;45.486;9.226;2023-02-27T09:24:22;2.55;;;2.08;;
62153;SDS011;48140;45.486;9.226;2023-02-27T09:26:48;3.38;;;2.05;;
62153;SDS011;48140;45.486;9.226;2023-02-27T09:29:14;6.90;;;2.17;;
62153;SDS011;48140;45.486;9.226;2023-02-27T09:31:40;3.28;;;2.13;;
62153;SDS011;48140;45.486;9.226;2023-02-27T09:34:06;4.15;;;2.63;;
62153;SDS011;48140;45.486;9.226;2023-02-27T09:36:33;4.50;;;2.58;;
62153;SDS011;48140;45.486;9.226;2023-02-27T09:38:59;2.70;;;1.67;;
62153;SDS011;48140;45.486;9.226;2023-02-27T09:44:17;3.13;;;2.72;;
62153;SDS011;48140;45.486;9.226;2023-02-27T09:49:20;2.42;;;1.95;;
62153;SDS011;48140;45.486;9.226;2023-02-27T09:51:50;2.83;;;2.10;;
62153;SDS011;48140;45.486;9.226;2023-02-27T09:54:17;4.03;;;2.40;;
62153;SDS011;48140;45.486;9.226;2023-02-27T09:56:55;3.55;;;1.92;;
62153;SDS011;48140;45.486;9.226;2023-02-27T09:59:33;3.42;;;2.03;;
62153;SDS011;48140;45.486;9.226;2023-02-27T10:02:21;2.33;;;1.77;;
62153;SDS011;48140;45.486;9.226;2023-02-27T10:05:13;3.60;;;2.13;;
62153;SDS011;48140;45.486;9.226;2023-02-27T10:11:02;1.85;;;1.55;;
62153;SDS011;48140;45.486;9.226;2023-02-27T10:15:57;5.22;;;2.42;;
62153;SDS011;48140;45.486;9.226;2023-02-27T10:18:26;3.03;;;2.03;;
62153;SDS011;48140;45.486;9.226;2023-02-27T10:21:02;3.35;;;2.05;;
62153;SDS011;48140;45.486;9.226;2023-02-27T10:23:42;3.20;;;2.28;;
62153;SDS011;48140;45.486;9.226;2023-02-27T10:26:51;4.38;;;2.30;;
62153;SDS011;48140;45.486;9.226;2023-02-27T10:32:01;3.22;;;2.03;;
62153;SDS011;48140;45.486;9.226;2023-02-27T10:34:55;4.18;;;2.85;;
62153;SDS011;48140;45.486;9.226;2023-02-27T10:37:34;3.20;;;2.20;;
62153;SDS011;48140;45.486;9.226;2023-02-27T10:40:11;4.30;;;1.95;;
62153;SDS011;48140;45.486;9.226;2023-02-27T10:42:39;4.28;;;2.60;;
62153;SDS011;48140;45.486;9.226;2023-02-27T10:45:05;4.63;;;2.67;;
62153;SDS011;48140;45.486;9.226;2023-02-27T10:47:39;6.95;;;2.50;;
62153;SDS011;48140;45.486;9.226;2023-02-27T10:50:13;3.72;;;2.70;;
62153;SDS011;48140;45.486;9.226;2023-02-27T10:52:47;5.50;;;3.03;;
62153;SDS011;48140;45.486;9.226;2023-02-27T10:55:20;4.68;;;2.40;;
62153;SDS011;48140;45.486;9.226;2023-02-27T10:57:48;5.53;;;2.83;;
62153;SDS011;48140;45.486;9.226;2023-02-27T11:03:05;4.38;;;2.70;;
62153;SDS011;48140;45.486;9.226;2023-02-27T11:05:34;5.97;;;2.45;;
62153;SDS011;48140;45.486;9.226;2023-02-27T11:08:11;3.60;;;2.55;;
62153;SDS011;48140;45.486;9.226;2023-02-27T11:10:53;4.57;;;2.88;;
62153;SDS011;48140;45.486;9.226;2023-02-27T11:13:51;4.35;;;2.70;;
62153;SDS011;48140;45.486;9.226;2023-02-27T11:16:18;5.13;;;3.00;;
62153;SDS011;48140;45.486;9.226;2023-02-27T11:18:48;5.53;;;2.88;;
62153;SDS011;48140;45.486;9.226;2023-02-27T11:21:17;3.58;;;2.45;;
62153;SDS011;48140;45.486;9.226;2023-02-27T11:23:52;4.80;;;2.55;;
62153;SDS011;48140;45.486;9.226;2023-02-27T11:26:52;3.95;;;2.35;;
62153;SDS011;48140;45.486;9.226;2023-02-27T11:29:20;3.63;;;2.33;;
62153;SDS011;48140;45.486;9.226;2023-02-27T11:31:47;4.28;;;2.55;;
62153;SDS011;48140;45.486;9.226;2023-02-27T11:34:24;3.63;;;2.28;;
62153;SDS011;48140;45.486;9.226;2023-02-27T11:36:53;3.30;;;2.40;;
62153;SDS011;48140;45.486;9.226;2023-02-27T11:39:26;6.38;;;3.40;;
62153;SDS011;48140;45.486;9.226;2023-02-27T11:41:55;3.55;;;2.22;;
62153;SDS011;48140;45.486;9.226;2023-02-27T11:44:29;4.45;;;2.40;;
62153;SDS011;48140;45.486;9.226;2023-02-27T11:49:58;4.38;;;2.83;;
62153;SDS011;48140;45.486;9.226;2023-02-27T11:55:15;4.25;;;2.38;;
62153;SDS011;48140;45.486;9.226;2023-02-27T11:57:46;3.05;;;2.13;;
62153;SDS011;48140;45.486;9.226;2023-02-27T12:00:19;3.17;;;2.15;;
62153;SDS011;48140;45.486;9.226;2023-02-27T12:06:02;2.83;;;1.52;;
62153;SDS011;48140;45.486;9.226;2023-02-27T12:08:32;2.65;;;1.52;;
62153;SDS011;48140;45.486;9.226;2023-02-27T12:11:05;2.90;;;1.90;;
62153;SDS011;48140;45.486;9.226;2023-02-27T12:13:39;2.22;;;1.73;;
62153;SDS011;48140;45.486;9.226;2023-02-27T12:16:21;2.28;;;1.67;;
62153;SDS011;48140;45.486;9.226;2023-02-27T12:19:20;3.83;;;2.33;;
62153;SDS011;48140;45.486;9.226;2023-02-27T12:21:51;3.15;;;1.90;;
62153;SDS011;48140;45.486;9.226;2023-02-27T12:24:27;3.55;;;2.22;;
62153;SDS011;48140;45.486;9.226;2023-02-27T12:27:18;4.88;;;2.10;;
62153;SDS011;48140;45.486;9.226;2023-02-27T12:29:52;2.90;;;2.03;;
62153;SDS011;48140;45.486;9.226;2023-02-27T12:32:25;3.00;;;1.90;;
62153;SDS011;48140;45.486;9.226;2023-02-27T12:37:38;3.55;;;2.10;;
62153;SDS011;48140;45.486;9.226;2023-02-27T12:40:04;3.00;;;2.05;;
62153;SDS011;48140;45.486;9.226;2023-02-27T12:51:28;3.33;;;1.80;;
62153;SDS011;48140;45.486;9.226;2023-02-27T12:57:04;3.22;;;1.80;;
62153;SDS011;48140;45.486;9.226;2023-02-27T13:04:59;3.13;;;2.00;;
62153;SDS011;48140;45.486;9.226;2023-02-27T13:07:48;3.03;;;1.83;;
62153;SDS011;48140;45.486;9.226;2023-02-27T13:10:30;3.13;;;1.50;;
62153;SDS011;48140;45.486;9.226;2023-02-27T13:13:08;2.53;;;1.52;;
62153;SDS011;48140;45.486;9.226;2023-02-27T13:15:56;1.70;;;1.38;;
62153;SDS011;48140;45.486;9.226;2023-02-27T13:18:46;4.82;;;2.10;;
62153;SDS011;48140;45.486;9.226;2023-02-27T13:26:45;2.55;;;1.40;;
62153;SDS011;48140;45.486;9.226;2023-02-27T13:29:18;2.70;;;1.85;;
62153;SDS011;48140;45.486;9.226;2023-02-27T13:32:01;2.80;;;1.80;;
62153;SDS011;48140;45.486;9.226;2023-02-27T13:34:39;2.78;;;1.67;;
62153;SDS011;48140;45.486;9.226;2023-02-27T13:40:28;2.63;;;1.60;;
62153;SDS011;48140;45.486;9.226;2023-02-27T13:43:01;2.15;;;1.65;;
62153;SDS011;48140;45.486;9.226;2023-02-27T13:54:14;2.35;;;1.58;;
62153;SDS011;48140;45.486;9.226;2023-02-27T14:04:29;3.50;;;1.90;;
62153;SDS011;48140;45.486;9.226;2023-02-27T14:06:59;2.22;;;1.63;;
62153;SDS011;48140;45.486;9.226;2023-02-27T14:09:37;2.97;;;1.90;;
62153;SDS011;48140;45.486;9.226;2023-02-27T14:12:06;2.78;;;2.00;;
62153;SDS011;48140;45.486;9.226;2023-02-27T14:14:58;3.85;;;1.75;;
62153;SDS011;48140;45.486;9.226;2023-02-27T14:20:01;3.25;;;2.20;;
62153;SDS011;48140;45.486;9.226;2023-02-27T14:22:32;2.75;;;1.80;;
62153;SDS011;48140;45.486;9.226;2023-02-27T14:25:15;2.97;;;1.88;;
62153;SDS011;48140;45.486;9.226;2023-02-27T14:27:47;3.83;;;1.65;;
62153;SDS011;48140;45.486;9.226;2023-02-27T14:30:24;5.95;;;2.00;;
62153;SDS011;48140;45.486;9.226;2023-02-27T14:32:56;6.78;;;1.65;;
62153;SDS011;48140;45.486;9.226;2023-02-27T14:35:44;2.83;;;1.80;;
62153;SDS011;48140;45.486;9.226;2023-02-27T14:38:20;7.13;;;2.13;;
62153;SDS011;48140;45.486;9.226;2023-02-27T14:40:55;3.97;;;2.10;;
62153;SDS011;48140;45.486;9.226;2023-02-27T14:43:38;3.63;;;1.90;;
62153;SDS011;48140;45.486;9.226;2023-02-27T14:46:12;3.00;;;2.00;;
62153;SDS011;48140;45.486;9.226;2023-02-27T14:49:00;2.55;;;1.67;;
62153;SDS011;48140;45.486;9.226;2023-02-27T14:51:32;2.25;;;1.70;;
62153;SDS011;48140;45.486;9.226;2023-02-27T14:54:00;2.85;;;1.73;;
62153;SDS011;48140;45.486;9.226;2023-02-27T14:56:28;3.13;;;1.50;;
62153;SDS011;48140;45.486;9.226;2023-02-27T14:58:54;3.70;;;2.08;;
62153;SDS011;48140;45.486;9.226;2023-02-27T15:01:21;3.00;;;2.05;;
62153;SDS011;48140;45.486;9.226;2023-02-27T15:03:48;3.72;;;1.95;;
62153;SDS011;48140;45.486;9.226;2023-02-27T15:06:17;3.05;;;2.08;;
62153;SDS011;48140;45.486;9.226;2023-02-27T15:08:47;3.60;;;2.13;;
62153;SDS011;48140;45.486;9.226;2023-02-27T15:11:16;4.25;;;1.90;;
62153;SDS011;48140;45.486;9.226;2023-02-27T15:13:44;2.88;;;1.85;;
62153;SDS011;48140;45.486;9.226;2023-02-27T15:16:19;3.25;;;1.90;;
62153;SDS011;48140;45.486;9.226;2023-02-27T15:18:49;2.30;;;1.77;;
62153;SDS011;48140;45.486;9.226;2023-02-27T15:21:21;2.55;;;1.70;;
62153;SDS011;48140;45.486;9.226;2023-02-27T15:23:52;2.78;;;1.73;;
62153;SDS011;48140;45.486;9.226;2023-02-27T15:26:30;2.53;;;1.73;;
62153;SDS011;48140;45.486;9.226;2023-02-27T15:29:01;5.57;;;2.10;;
62153;SDS011;48140;45.486;9.226;2023-02-27T15:31:28;2.80;;;2.13;;
62153;SDS011;48140;45.486;9.226;2023-02-27T15:33:56;3.05;;;2.08;;
62153;SDS011;48140;45.486;9.226;2023-02-27T15:36:25;2.47;;;1.95;;
62153;SDS011;48140;45.486;9.226;2023-02-27T15:39:06;3.90;;;2.28;;
62153;SDS011;48140;45.486;9.226;2023-02-27T15:41:42;3.50;;;1.90;;
62153;SDS011;48140;45.486;9.226;2023-02-27T15:46:41;2.30;;;1.67;;
62153;SDS011;48140;45.486;9.226;2023-02-27T15:49:11;4.45;;;2.15;;
62153;SDS011;48140;45.486;9.226;2023-02-27T15:51:47;2.72;;;1.92;;
62153;SDS011;48140;45.486;9.226;2023-02-27T15:54:30;3.92;;;2.45;;
62153;SDS011;48140;45.486;9.226;2023-02-27T15:56:57;2.72;;;1.92;;
62153;SDS011;48140;45.486;9.226;2023-02-27T15:59:23;3.92;;;2.30;;
62153;SDS011;48140;45.486;9.226;2023-02-27T16:01:49;4.68;;;2.08;;
62153;SDS011;48140;45.486;9.226;2023-02-27T16:04:23;3.47;;;2.00;;
62153;SDS011;48140;45.486;9.226;2023-02-27T16:06:52;4.68;;;2.10;;
62153;SDS011;48140;45.486;9.226;2023-02-27T16:09:34;7.13;;;1.75;;
62153;SDS011;48140;45.486;9.226;2023-02-27T16:12:18;3.13;;;2.15;;
62153;SDS011;48140;45.486;9.226;2023-02-27T16:14:48;2.55;;;1.67;;
62153;SDS011;48140;45.486;9.226;2023-02-27T16:17:30;2.90;;;1.90;;
62153;SDS011;48140;45.486;9.226;2023-02-27T16:19:58;3.28;;;2.17;;
62153;SDS011;48140;45.486;9.226;2023-02-27T16:23:05;2.67;;;1.83;;
62153;SDS011;48140;45.486;9.226;2023-02-27T16:26:12;2.92;;;2.03;;
62153;SDS011;48140;45.486;9.226;2023-02-27T16:33:52;3.45;;;2.10;;
62153;SDS011;48140;45.486;9.226;2023-02-27T16:36:20;5.70;;;2.03;;
62153;SDS011;48140;45.486;9.226;2023-02-27T16:38:48;3.45;;;2.30;;
62153;SDS011;48140;45.486;9.226;2023-02-27T16:41:15;3.50;;;2.17;;
62153;SDS011;48140;45.486;9.226;2023-02-27T16:43:42;2.55;;;1.88;;
62153;SDS011;48140;45.486;9.226;2023-02-27T16:46:10;2.80;;;2.10;;
62153;SDS011;48140;45.486;9.226;2023-02-27T16:48:40;3.47;;;2.20;;
62153;SDS011;48140;45.486;9.226;2023-02-27T16:51:09;2.95;;;2.00;;
62153;SDS011;48140;45.486;9.226;2023-02-27T16:53:48;4.22;;;2.16;;
62153;SDS011;48140;45.486;9.226;2023-02-27T16:56:15;3.08;;;2.10;;
62153;SDS011;48140;45.486;9.226;2023-02-27T16:58:42;3.85;;;2.38;;
62153;SDS011;48140;45.486;9.226;2023-02-27T17:01:08;3.45;;;2.22;;
62153;SDS011;48140;45.486;9.226;2023-02-27T17:03:34;4.60;;;2.30;;
62153;SDS011;48140;45.486;9.226;2023-02-27T17:06:00;4.20;;;2.15;;
62153;SDS011;48140;45.486;9.226;2023-02-27T17:08:27;6.13;;;2.42;;
62153;SDS011;48140;45.486;9.226;2023-02-27T17:10:53;4.22;;;2.22;;
62153;SDS011;48140;45.486;9.226;2023-02-27T17:13:26;3.86;;;2.21;;
62153;SDS011;48140;45.486;9.226;2023-02-27T17:15:52;3.47;;;2.17;;
62153;SDS011;48140;45.486;9.226;2023-02-27T17:18:18;3.53;;;2.47;;
62153;SDS011;48140;45.486;9.226;2023-02-27T17:20:44;4.07;;;2.63;;
62153;SDS011;48140;45.486;9.226;2023-02-27T17:23:10;4.40;;;3.25;;
62153;SDS011;48140;45.486;9.226;2023-02-27T17:25:36;3.53;;;2.40;;
62153;SDS011;48140;45.486;9.226;2023-02-27T17:28:03;3.50;;;2.20;;
62153;SDS011;48140;45.486;9.226;2023-02-27T17:30:29;4.40;;;2.63;;
62153;SDS011;48140;45.486;9.226;2023-02-27T17:32:55;5.82;;;2.75;;
62153;SDS011;48140;45.486;9.226;2023-02-27T17:35:20;6.00;;;3.00;;
62153;SDS011;48140;45.486;9.226;2023-02-27T17:37:46;4.05;;;2.47;;
62153;SDS011;48140;45.486;9.226;2023-02-27T17:40:12;4.50;;;2.05;;